Lake Mitchell, South Dakota
Current Conditions -  °F | °C
As of 9:53 AM on Thursday 23 Oct 2014 (Local Time) from KMHE Reporting Station
Clear Clear  
Wind Chill: 46°   Ceiling: Unl
Heat Index: 48°   Visibility: 10mi
Dew Point: 45°   Wind: 5mph
Humidity: 89%   Direction: 120°ESE
Pressure: 30.03"   Gusts: NA
Location:  43.7034°N, 98.0626°W
Report Text: KMHE 231453Z AUTO 12004KT 10SM CLR 09/07 A3003 RMK AO2 SLP174 T00890072 53009
Loading
Personal Weather Stations






























Interactive Weather Map
Tropical Storm Tracking
New forecast layout! Learn more

10-Day Weather Forecast

Advertisements
Track Severe Weather on mobile